Bock, MN (56313)

12:34 PM CDT on September 03, 2015 (GMT -0500)
RoboWeather - Mille Lacs County | | Change Station
CLOSE
Current Station
Personal Weather Station
Location: Milaca, MN
Elevation: 1100 ft
Nearby Weather Stations

Elev 1100 ft 45.81 °N, 93.61 °W | Updated 8 seconds ago

Clear
Clear
76.5 °F
Feels Like 78 °F
N
8.0
Wind Variable Wind from ESE
Gusts 11.0 mph

Today
High -- | Low -- °F
--% Chance of Precip.
Yesterday
High -- | Low -- °F
Precip. -- in
6:37 AM 7:48 PM
Waning Gibbous, 68% visible
Pressure 29.95 in
Visibility 10.0 miles
Clouds Clear
Heat Index 78 °F
Dew Point 70 °F
Humidity 81%
Rainfall 0.00 in
Snow Depth Not available.
UV 8 out of 12
Pollen 9.90 out of 12
Air Quality Not available.
Flu Activity Not available.
METAR KJMR 031721Z AUTO 11007KT 10SM CLR 24/18 A2995 RMK AO2
Pressure 29.95 in
Visibility 10.0 miles
Clouds Clear
Heat Index 78 °F
Dew Point 70 °F
Humidity 81%
Rainfall 0.00 in
Snow Depth Not available.
UV 8 out of 12
Pollen 9.90 out of 12
Air Quality Not available.
Flu Activity Not available.
METAR KJMR 031721Z AUTO 11007KT 10SM CLR 24/18 A2995 RMK AO2

10-Day Weather Forecast

×

Almanac

Astronomy

Sep. 03, 2015 Rise Set
Actual Time
Civil Twilight
Nautical Twilight
Astronomical Twilight
Moon
Length of Visible Light
Length of Day
Tomorrow will be .
, % of the Moon is Illuminated

Today's Extremes

State Highs State Lows

Community

WunderPhotos

Upload Photos

1,851,991 photos uploaded!

WunderBlogs® & News

Nearby

Air Quality

  Air Quality AQ Index Pollutant
Not available.

Snow Depth

Station Depth Elevation

Earthquake Activity

City Distance Mag. Time & Date
Minimum magnitude displayed is 2.5.

Coastal Water Temperatures

Place Temperature

Stations

Nearby Weather Stations

Station Location Temp. Windchill Dew Point Humidity Wind Precip. Elev Updated Type